sensor_id;sensor_type;location;lat;lon;timestamp;pressure;altitude;pressure_sealevel;temperature;humidity
3254;BME280;1639;42.804;23.342;2023-12-29T00:02:09;74991.34;;;-148.52;81.77
3254;BME280;1639;42.804;23.342;2023-12-29T00:04:34;75003.78;;;-148.52;82.00
3254;BME280;1639;42.804;23.342;2023-12-29T00:07:01;75005.84;;;-148.52;82.17
3254;BME280;1639;42.804;23.342;2023-12-29T00:09:26;74999.63;;;-148.52;82.41
3254;BME280;1639;42.804;23.342;2023-12-29T00:11:52;74995.50;;;-148.52;81.98
3254;BME280;1639;42.804;23.342;2023-12-29T00:14:19;74999.63;;;-148.52;82.04
3254;BME280;1639;42.804;23.342;2023-12-29T00:16:44;74995.50;;;-148.52;81.73
3254;BME280;1639;42.804;23.342;2023-12-29T00:19:11;74995.50;;;-148.52;81.55
3254;BME280;1639;42.804;23.342;2023-12-29T00:21:37;74991.34;;;-148.52;81.55
3254;BME280;1639;42.804;23.342;2023-12-29T00:24:04;74997.56;;;-148.52;82.22
3254;BME280;1639;42.804;23.342;2023-12-29T00:26:30;74997.56;;;-148.52;82.36
3254;BME280;1639;42.804;23.342;2023-12-29T00:28:55;74999.63;;;-148.52;82.21
3254;BME280;1639;42.804;23.342;2023-12-29T00:31:20;75009.97;;;-148.52;82.47
3254;BME280;1639;42.804;23.342;2023-12-29T00:33:46;75022.41;;;-148.52;82.58
3254;BME280;1639;42.804;23.342;2023-12-29T00:36:18;75016.19;;;-148.52;82.51
3254;BME280;1639;42.804;23.342;2023-12-29T00:38:44;75030.66;;;-148.52;82.83
3254;BME280;1639;42.804;23.342;2023-12-29T00:41:10;75032.75;;;-148.52;83.29
3254;BME280;1639;42.804;23.342;2023-12-29T00:43:36;75036.88;;;-148.52;83.30
3254;BME280;1639;42.804;23.342;2023-12-29T00:46:05;75012.06;;;-148.52;83.85
3254;BME280;1639;42.804;23.342;2023-12-29T00:48:31;75007.91;;;-148.52;84.04
3254;BME280;1639;42.804;23.342;2023-12-29T00:50:57;75014.13;;;-148.52;83.96
3254;BME280;1639;42.804;23.342;2023-12-29T00:53:22;75020.31;;;-148.52;83.62
3254;BME280;1639;42.804;23.342;2023-12-29T00:55:47;75018.25;;;-148.52;83.39
3254;BME280;1639;42.804;23.342;2023-12-29T00:58:13;75009.97;;;-148.52;83.31
3254;BME280;1639;42.804;23.342;2023-12-29T01:00:38;75009.97;;;-148.52;82.99
3254;BME280;1639;42.804;23.342;2023-12-29T01:03:04;75001.69;;;-148.52;83.07
3254;BME280;1639;42.804;23.342;2023-12-29T01:05:30;75003.78;;;-148.52;82.65
3254;BME280;1639;42.804;23.342;2023-12-29T01:07:55;75001.69;;;-148.52;82.02
3254;BME280;1639;42.804;23.342;2023-12-29T01:10:21;75003.78;;;-148.52;82.02
3254;BME280;1639;42.804;23.342;2023-12-29T01:12:46;74995.50;;;-148.52;82.30
3254;BME280;1639;42.804;23.342;2023-12-29T01:15:13;74993.44;;;-148.52;82.33
3254;BME280;1639;42.804;23.342;2023-12-29T01:17:38;74993.44;;;-148.52;83.01
3254;BME280;1639;42.804;23.342;2023-12-29T01:20:04;74995.50;;;-148.52;82.95
3254;BME280;1639;42.804;23.342;2023-12-29T01:22:29;74991.34;;;-148.52;83.01
3254;BME280;1639;42.804;23.342;2023-12-29T01:24:55;74991.34;;;-148.52;82.90
3254;BME280;1639;42.804;23.342;2023-12-29T01:27:20;74993.44;;;-148.52;82.28
3254;BME280;1639;42.804;23.342;2023-12-29T01:29:46;74999.63;;;-148.52;81.83
3254;BME280;1639;42.804;23.342;2023-12-29T01:32:11;75009.97;;;-148.52;82.21
3254;BME280;1639;42.804;23.342;2023-12-29T01:34:37;75028.59;;;-148.52;81.93
3254;BME280;1639;42.804;23.342;2023-12-29T01:37:03;75030.66;;;-148.52;82.16
3254;BME280;1639;42.804;23.342;2023-12-29T01:39:29;75024.47;;;-148.52;82.16
3254;BME280;1639;42.804;23.342;2023-12-29T01:41:55;75026.53;;;-148.52;82.10
3254;BME280;1639;42.804;23.342;2023-12-29T01:44:22;75016.19;;;-148.52;82.20
3254;BME280;1639;42.804;23.342;2023-12-29T01:46:49;75018.25;;;-148.52;82.25
3254;BME280;1639;42.804;23.342;2023-12-29T01:49:16;75022.41;;;-148.52;82.19
3254;BME280;1639;42.804;23.342;2023-12-29T01:51:49;75016.19;;;-148.52;82.62
3254;BME280;1639;42.804;23.342;2023-12-29T01:54:16;75012.06;;;-148.52;82.32
3254;BME280;1639;42.804;23.342;2023-12-29T01:56:42;75012.06;;;-148.52;82.60
3254;BME280;1639;42.804;23.342;2023-12-29T01:59:08;75016.19;;;-148.52;82.23
3254;BME280;1639;42.804;23.342;2023-12-29T02:01:34;75012.06;;;-148.52;81.99
3254;BME280;1639;42.804;23.342;2023-12-29T02:04:01;75007.91;;;-148.52;82.72
3254;BME280;1639;42.804;23.342;2023-12-29T02:06:26;74997.56;;;-148.52;82.82
3254;BME280;1639;42.804;23.342;2023-12-29T02:08:52;74991.34;;;-148.52;83.04
3254;BME280;1639;42.804;23.342;2023-12-29T02:11:18;74976.88;;;-148.52;82.74
3254;BME280;1639;42.804;23.342;2023-12-29T02:13:43;74966.53;;;-148.52;82.49
3254;BME280;1639;42.804;23.342;2023-12-29T02:16:14;74962.38;;;-148.52;82.71
3254;BME280;1639;42.804;23.342;2023-12-29T02:18:45;74976.88;;;-148.52;83.59
3254;BME280;1639;42.804;23.342;2023-12-29T02:21:11;74978.94;;;-148.52;84.16
3254;BME280;1639;42.804;23.342;2023-12-29T02:23:37;74985.16;;;-148.52;84.98
3254;BME280;1639;42.804;23.342;2023-12-29T02:26:07;74991.34;;;-148.52;86.03
3254;BME280;1639;42.804;23.342;2023-12-29T02:28:39;74995.50;;;-148.52;87.65
3254;BME280;1639;42.804;23.342;2023-12-29T02:31:19;74989.28;;;-148.52;89.36
3254;BME280;1639;42.804;23.342;2023-12-29T02:33:47;74981.00;;;-148.52;89.59
3254;BME280;1639;42.804;23.342;2023-12-29T02:36:16;75005.84;;;-148.52;89.81
3254;BME280;1639;42.804;23.342;2023-12-29T02:38:42;75020.31;;;-148.52;90.00
3254;BME280;1639;42.804;23.342;2023-12-29T02:41:07;75022.41;;;-148.52;90.25
3254;BME280;1639;42.804;23.342;2023-12-29T02:43:33;75026.53;;;-148.52;91.19
3254;BME280;1639;42.804;23.342;2023-12-29T02:45:58;75030.66;;;-148.52;93.75
3254;BME280;1639;42.804;23.342;2023-12-29T02:48:24;75016.19;;;-148.52;94.97
3254;BME280;1639;42.804;23.342;2023-12-29T02:50:49;75016.19;;;-148.52;95.54
3254;BME280;1639;42.804;23.342;2023-12-29T02:53:15;75016.19;;;-148.52;95.99
3254;BME280;1639;42.804;23.342;2023-12-29T02:55:40;75009.97;;;-148.52;95.70
3254;BME280;1639;42.804;23.342;2023-12-29T02:58:07;75012.06;;;-148.52;96.19
3254;BME280;1639;42.804;23.342;2023-12-29T03:00:32;75034.81;;;-148.52;97.02
3254;BME280;1639;42.804;23.342;2023-12-29T03:02:58;75051.38;;;-148.52;98.14
3254;BME280;1639;42.804;23.342;2023-12-29T03:05:23;75070.00;;;-148.52;100.00
3254;BME280;1639;42.804;23.342;2023-12-29T03:07:49;75078.25;;;-148.52;100.00
3254;BME280;1639;42.804;23.342;2023-12-29T03:10:14;75078.25;;;-148.52;100.00
3254;BME280;1639;42.804;23.342;2023-12-29T03:12:40;75084.47;;;-148.52;100.00
3254;BME280;1639;42.804;23.342;2023-12-29T03:15:05;75088.63;;;-148.52;100.00
3254;BME280;1639;42.804;23.342;2023-12-29T03:17:31;75084.47;;;-148.52;100.00
3254;BME280;1639;42.804;23.342;2023-12-29T03:19:56;75082.41;;;-148.52;100.00
3254;BME280;1639;42.804;23.342;2023-12-29T03:22:21;75076.19;;;-148.52;100.00
3254;BME280;1639;42.804;23.342;2023-12-29T03:24:47;75057.56;;;-148.52;100.00
3254;BME280;1639;42.804;23.342;2023-12-29T03:27:12;75053.44;;;-148.52;100.00
3254;BME280;1639;42.804;23.342;2023-12-29T03:29:37;75045.16;;;-148.52;100.00
3254;BME280;1639;42.804;23.342;2023-12-29T03:32:03;75038.94;;;-148.52;100.00
3254;BME280;1639;42.804;23.342;2023-12-29T03:34:29;75022.41;;;-148.52;100.00
3254;BME280;1639;42.804;23.342;2023-12-29T03:36:54;75007.91;;;-148.52;100.00
3254;BME280;1639;42.804;23.342;2023-12-29T03:39:20;74999.63;;;-148.52;100.00
3254;BME280;1639;42.804;23.342;2023-12-29T03:41:45;74997.56;;;-148.52;100.00
3254;BME280;1639;42.804;23.342;2023-12-29T03:44:11;74991.34;;;-148.52;100.00
3254;BME280;1639;42.804;23.342;2023-12-29T03:46:36;74991.34;;;-148.52;100.00
3254;BME280;1639;42.804;23.342;2023-12-29T03:49:02;75001.69;;;-148.52;100.00
3254;BME280;1639;42.804;23.342;2023-12-29T03:51:28;75020.31;;;-148.52;100.00
3254;BME280;1639;42.804;23.342;2023-12-29T03:53:53;75032.75;;;-148.52;100.00
3254;BME280;1639;42.804;23.342;2023-12-29T03:56:19;75045.16;;;-148.52;100.00
3254;BME280;1639;42.804;23.342;2023-12-29T03:58:45;75061.72;;;-148.52;100.00
3254;BME280;1639;42.804;23.342;2023-12-29T04:01:15;75055.50;;;-148.52;100.00
3254;BME280;1639;42.804;23.342;2023-12-29T04:03:41;75047.22;;;-148.52;100.00
3254;BME280;1639;42.804;23.342;2023-12-29T04:06:07;75041.03;;;-148.52;100.00
3254;BME280;1639;42.804;23.342;2023-12-29T04:08:33;75036.88;;;-148.52;100.00
3254;BME280;1639;42.804;23.342;2023-12-29T04:10:59;75045.16;;;-148.52;100.00
3254;BME280;1639;42.804;23.342;2023-12-29T04:13:24;75038.94;;;-148.52;100.00
3254;BME280;1639;42.804;23.342;2023-12-29T04:15:50;75041.03;;;-148.52;100.00
3254;BME280;1639;42.804;23.342;2023-12-29T04:18:17;75036.88;;;-148.52;100.00
3254;BME280;1639;42.804;23.342;2023-12-29T04:20:42;75024.47;;;-148.52;100.00
3254;BME280;1639;42.804;23.342;2023-12-29T04:23:07;75028.59;;;-148.52;100.00
3254;BME280;1639;42.804;23.342;2023-12-29T04:25:33;75020.31;;;-148.52;100.00
3254;BME280;1639;42.804;23.342;2023-12-29T04:27:59;75022.41;;;-148.52;100.00
3254;BME280;1639;42.804;23.342;2023-12-29T04:30:24;75012.06;;;-148.52;100.00
3254;BME280;1639;42.804;23.342;2023-12-29T04:32:50;75001.69;;;-148.52;100.00
3254;BME280;1639;42.804;23.342;2023-12-29T04:35:15;74997.56;;;-148.52;100.00
3254;BME280;1639;42.804;23.342;2023-12-29T04:37:43;74993.44;;;-148.52;100.00
3254;BME280;1639;42.804;23.342;2023-12-29T04:40:09;74978.94;;;-148.52;100.00
3254;BME280;1639;42.804;23.342;2023-12-29T04:42:35;74976.88;;;-148.52;100.00
3254;BME280;1639;42.804;23.342;2023-12-29T04:45:00;74972.72;;;-148.52;100.00
3254;BME280;1639;42.804;23.342;2023-12-29T04:47:26;74974.81;;;-148.52;100.00
3254;BME280;1639;42.804;23.342;2023-12-29T04:49:51;74970.66;;;-148.52;100.00
3254;BME280;1639;42.804;23.342;2023-12-29T04:52:16;74974.81;;;-148.52;100.00
3254;BME280;1639;42.804;23.342;2023-12-29T04:54:42;74970.66;;;-148.52;100.00
3254;BME280;1639;42.804;23.342;2023-12-29T04:57:07;74985.16;;;-148.52;100.00
3254;BME280;1639;42.804;23.342;2023-12-29T04:59:33;74972.72;;;-148.52;100.00
3254;BME280;1639;42.804;23.342;2023-12-29T05:01:58;74966.53;;;-148.52;100.00
3254;BME280;1639;42.804;23.342;2023-12-29T05:04:23;74962.38;;;-148.52;100.00
3254;BME280;1639;42.804;23.342;2023-12-29T05:06:49;74966.53;;;-148.52;100.00
3254;BME280;1639;42.804;23.342;2023-12-29T05:09:14;74970.66;;;-148.52;100.00
3254;BME280;1639;42.804;23.342;2023-12-29T05:11:39;74974.81;;;-148.52;100.00
3254;BME280;1639;42.804;23.342;2023-12-29T05:14:05;74970.66;;;-148.52;100.00
3254;BME280;1639;42.804;23.342;2023-12-29T05:16:30;74978.94;;;-148.52;100.00
3254;BME280;1639;42.804;23.342;2023-12-29T05:18:56;74974.81;;;-148.52;100.00
3254;BME280;1639;42.804;23.342;2023-12-29T05:21:21;74974.81;;;-148.52;100.00
3254;BME280;1639;42.804;23.342;2023-12-29T05:23:49;74966.53;;;-148.52;100.00
3254;BME280;1639;42.804;23.342;2023-12-29T05:26:14;74985.16;;;-148.52;100.00
3254;BME280;1639;42.804;23.342;2023-12-29T05:28:40;74991.34;;;-148.52;100.00
3254;BME280;1639;42.804;23.342;2023-12-29T05:31:05;75003.78;;;-148.52;100.00
3254;BME280;1639;42.804;23.342;2023-12-29T05:33:31;75009.97;;;-148.52;100.00
3254;BME280;1639;42.804;23.342;2023-12-29T05:35:57;75028.59;;;-148.52;100.00
3254;BME280;1639;42.804;23.342;2023-12-29T05:38:23;75020.31;;;-148.52;100.00
3254;BME280;1639;42.804;23.342;2023-12-29T05:40:48;75014.13;;;-148.52;100.00
3254;BME280;1639;42.804;23.342;2023-12-29T05:43:15;75020.31;;;-148.52;100.00
3254;BME280;1639;42.804;23.342;2023-12-29T05:45:40;75036.88;;;-148.52;100.00
3254;BME280;1639;42.804;23.342;2023-12-29T05:48:06;75041.03;;;-148.52;100.00
3254;BME280;1639;42.804;23.342;2023-12-29T05:50:32;75024.47;;;-148.52;100.00
3254;BME280;1639;42.804;23.342;2023-12-29T05:52:57;75018.25;;;-148.52;100.00
3254;BME280;1639;42.804;23.342;2023-12-29T05:55:22;75012.06;;;-148.52;100.00
3254;BME280;1639;42.804;23.342;2023-12-29T05:57:48;75003.78;;;-148.52;100.00
3254;BME280;1639;42.804;23.342;2023-12-29T06:00:14;75009.97;;;-148.52;100.00
3254;BME280;1639;42.804;23.342;2023-12-29T06:02:40;75012.06;;;-148.52;100.00
3254;BME280;1639;42.804;23.342;2023-12-29T06:05:07;75012.06;;;-148.52;100.00
3254;BME280;1639;42.804;23.342;2023-12-29T06:07:33;75007.91;;;-148.52;100.00
3254;BME280;1639;42.804;23.342;2023-12-29T06:09:59;75012.06;;;-148.52;100.00
3254;BME280;1639;42.804;23.342;2023-12-29T06:12:24;75022.41;;;-148.52;100.00
3254;BME280;1639;42.804;23.342;2023-12-29T06:14:49;75041.03;;;-148.52;100.00
3254;BME280;1639;42.804;23.342;2023-12-29T06:17:15;75045.16;;;-148.52;100.00
3254;BME280;1639;42.804;23.342;2023-12-29T06:19:41;75059.63;;;-148.52;100.00
3254;BME280;1639;42.804;23.342;2023-12-29T06:22:06;75063.78;;;-148.52;100.00
3254;BME280;1639;42.804;23.342;2023-12-29T06:24:39;75070.00;;;-148.52;100.00
3254;BME280;1639;42.804;23.342;2023-12-29T06:27:05;75076.19;;;-148.52;100.00
3254;BME280;1639;42.804;23.342;2023-12-29T06:29:30;75084.47;;;-148.52;100.00
3254;BME280;1639;42.804;23.342;2023-12-29T06:31:55;75082.41;;;-148.52;100.00
3254;BME280;1639;42.804;23.342;2023-12-29T06:34:21;75082.41;;;-148.52;100.00
3254;BME280;1639;42.804;23.342;2023-12-29T06:36:46;75088.63;;;-148.52;100.00
3254;BME280;1639;42.804;23.342;2023-12-29T06:39:12;75080.34;;;-148.52;100.00
3254;BME280;1639;42.804;23.342;2023-12-29T06:41:37;75078.25;;;-148.52;100.00
3254;BME280;1639;42.804;23.342;2023-12-29T06:44:03;75090.69;;;-148.52;100.00
3254;BME280;1639;42.804;23.342;2023-12-29T06:46:28;75086.53;;;-148.52;100.00
3254;BME280;1639;42.804;23.342;2023-12-29T06:48:54;75084.47;;;-148.52;100.00
3254;BME280;1639;42.804;23.342;2023-12-29T06:51:19;75086.53;;;-148.52;100.00
3254;BME280;1639;42.804;23.342;2023-12-29T06:53:46;75078.25;;;-148.52;100.00
3254;BME280;1639;42.804;23.342;2023-12-29T06:56:13;75074.13;;;-148.52;100.00
3254;BME280;1639;42.804;23.342;2023-12-29T06:58:39;75084.47;;;-148.52;100.00
3254;BME280;1639;42.804;23.342;2023-12-29T07:01:04;75094.81;;;-148.52;100.00
3254;BME280;1639;42.804;23.342;2023-12-29T07:03:30;75096.88;;;-148.52;100.00
3254;BME280;1639;42.804;23.342;2023-12-29T07:05:55;75119.66;;;-148.52;100.00
3254;BME280;1639;42.804;23.342;2023-12-29T07:08:20;75119.66;;;-148.52;100.00
3254;BME280;1639;42.804;23.342;2023-12-29T07:10:46;75107.22;;;-148.52;100.00
3254;BME280;1639;42.804;23.342;2023-12-29T07:13:15;75103.09;;;-148.52;100.00
3254;BME280;1639;42.804;23.342;2023-12-29T07:15:40;75094.81;;;-148.52;100.00
3254;BME280;1639;42.804;23.342;2023-12-29T07:18:06;75082.41;;;-148.52;100.00
3254;BME280;1639;42.804;23.342;2023-12-29T07:20:31;75063.78;;;-148.52;100.00
3254;BME280;1639;42.804;23.342;2023-12-29T07:22:57;75049.28;;;-148.52;100.00
3254;BME280;1639;42.804;23.342;2023-12-29T07:25:22;75041.03;;;-148.52;100.00
3254;BME280;1639;42.804;23.342;2023-12-29T07:27:47;75036.88;;;-148.52;100.00
3254;BME280;1639;42.804;23.342;2023-12-29T07:30:14;75036.88;;;-148.52;100.00
3254;BME280;1639;42.804;23.342;2023-12-29T07:32:39;75049.28;;;-148.52;100.00
3254;BME280;1639;42.804;23.342;2023-12-29T07:35:05;75049.28;;;-148.52;100.00
3254;BME280;1639;42.804;23.342;2023-12-29T07:37:30;75057.56;;;-148.52;100.00
3254;BME280;1639;42.804;23.342;2023-12-29T07:39:56;75045.16;;;-148.52;100.00
3254;BME280;1639;42.804;23.342;2023-12-29T07:42:21;75030.66;;;-148.52;100.00
3254;BME280;1639;42.804;23.342;2023-12-29T07:44:46;75020.31;;;-148.52;100.00
3254;BME280;1639;42.804;23.342;2023-12-29T07:47:12;75003.78;;;-148.52;100.00
3254;BME280;1639;42.804;23.342;2023-12-29T07:49:37;74991.34;;;-148.52;100.00
3254;BME280;1639;42.804;23.342;2023-12-29T07:52:03;74983.06;;;-148.52;100.00
3254;BME280;1639;42.804;23.342;2023-12-29T07:54:28;74981.00;;;-148.52;100.00
3254;BME280;1639;42.804;23.342;2023-12-29T07:56:54;75003.78;;;-148.52;100.00
3254;BME280;1639;42.804;23.342;2023-12-29T07:59:19;75016.19;;;-148.52;100.00
3254;BME280;1639;42.804;23.342;2023-12-29T08:01:45;75022.41;;;-148.52;100.00
3254;BME280;1639;42.804;23.342;2023-12-29T08:04:10;75003.78;;;-148.52;100.00
3254;BME280;1639;42.804;23.342;2023-12-29T08:06:39;74983.06;;;-148.52;100.00
3254;BME280;1639;42.804;23.342;2023-12-29T08:09:04;74947.91;;;-148.52;100.00
3254;BME280;1639;42.804;23.342;2023-12-29T08:11:30;74933.41;;;-148.52;100.00
3254;BME280;1639;42.804;23.342;2023-12-29T08:13:56;74918.94;;;-148.52;100.00
3254;BME280;1639;42.804;23.342;2023-12-29T08:16:21;74906.53;;;-148.52;100.00
3254;BME280;1639;42.804;23.342;2023-12-29T08:18:49;74902.38;;;-148.52;100.00
3254;BME280;1639;42.804;23.342;2023-12-29T08:21:21;74898.25;;;-148.52;100.00
3254;BME280;1639;42.804;23.342;2023-12-29T08:23:47;74894.09;;;-148.52;100.00
3254;BME280;1639;42.804;23.342;2023-12-29T08:26:13;74885.81;;;-148.52;100.00
3254;BME280;1639;42.804;23.342;2023-12-29T08:28:39;74867.22;;;-148.52;100.00
3254;BME280;1639;42.804;23.342;2023-12-29T08:31:06;74850.66;;;-148.52;100.00
3254;BME280;1639;42.804;23.342;2023-12-29T08:33:31;74854.78;;;-148.52;100.00
3254;BME280;1639;42.804;23.342;2023-12-29T08:35:57;74865.13;;;-148.52;100.00
3254;BME280;1639;42.804;23.342;2023-12-29T08:38:26;74865.13;;;-148.52;100.00
3254;BME280;1639;42.804;23.342;2023-12-29T08:40:52;74861.00;;;-148.52;100.00
3254;BME280;1639;42.804;23.342;2023-12-29T08:43:17;74838.25;;;-148.52;100.00
3254;BME280;1639;42.804;23.342;2023-12-29T08:45:49;74840.31;;;-148.52;100.00
3254;BME280;1639;42.804;23.342;2023-12-29T08:48:14;74825.81;;;-148.52;100.00
3254;BME280;1639;42.804;23.342;2023-12-29T08:50:39;74821.69;;;-148.52;100.00
3254;BME280;1639;42.804;23.342;2023-12-29T08:53:05;74813.41;;;-148.52;100.00
3254;BME280;1639;42.804;23.342;2023-12-29T08:55:30;74813.41;;;-148.52;100.00
3254;BME280;1639;42.804;23.342;2023-12-29T08:57:57;74801.00;;;-148.52;100.00
3254;BME280;1639;42.804;23.342;2023-12-29T09:00:22;74796.84;;;-148.52;100.00
3254;BME280;1639;42.804;23.342;2023-12-29T09:02:48;74790.66;;;-148.52;100.00
3254;BME280;1639;42.804;23.342;2023-12-29T09:05:13;74801.00;;;-148.52;100.00
3254;BME280;1639;42.804;23.342;2023-12-29T09:07:39;74805.13;;;-148.52;100.00
3254;BME280;1639;42.804;23.342;2023-12-29T09:10:05;74782.38;;;-148.52;100.00
3254;BME280;1639;42.804;23.342;2023-12-29T09:12:36;74782.38;;;-148.52;100.00
3254;BME280;1639;42.804;23.342;2023-12-29T09:15:02;74772.03;;;-148.52;100.00
3254;BME280;1639;42.804;23.342;2023-12-29T09:17:27;74772.03;;;-148.52;100.00
3254;BME280;1639;42.804;23.342;2023-12-29T09:19:53;74751.34;;;-148.52;100.00
3254;BME280;1639;42.804;23.342;2023-12-29T09:22:18;74745.13;;;-148.52;100.00
3254;BME280;1639;42.804;23.342;2023-12-29T09:24:43;74747.19;;;-148.52;100.00
3254;BME280;1639;42.804;23.342;2023-12-29T09:27:09;74726.50;;;-148.52;100.00
3254;BME280;1639;42.804;23.342;2023-12-29T09:29:34;74707.88;;;-148.52;100.00
3254;BME280;1639;42.804;23.342;2023-12-29T09:31:59;74699.59;;;-148.52;100.00
3254;BME280;1639;42.804;23.342;2023-12-29T09:34:25;74689.25;;;-148.52;100.00
3254;BME280;1639;42.804;23.342;2023-12-29T09:36:50;74685.13;;;-148.52;100.00
3254;BME280;1639;42.804;23.342;2023-12-29T09:39:16;74680.97;;;-148.52;100.00
3254;BME280;1639;42.804;23.342;2023-12-29T09:41:47;74668.56;;;-148.52;100.00
3254;BME280;1639;42.804;23.342;2023-12-29T09:44:16;74678.91;;;-148.52;100.00
3254;BME280;1639;42.804;23.342;2023-12-29T09:46:49;74652.00;;;-148.52;100.00
3254;BME280;1639;42.804;23.342;2023-12-29T09:49:15;74662.38;;;-148.52;100.00
3254;BME280;1639;42.804;23.342;2023-12-29T09:51:42;74656.16;;;-148.52;100.00
3254;BME280;1639;42.804;23.342;2023-12-29T09:54:08;74641.66;;;-148.52;100.00
3254;BME280;1639;42.804;23.342;2023-12-29T09:56:35;74635.47;;;-148.52;100.00
3254;BME280;1639;42.804;23.342;2023-12-29T09:59:01;74616.84;;;-148.52;100.00
3254;BME280;1639;42.804;23.342;2023-12-29T10:01:28;74616.84;;;-148.52;100.00
3254;BME280;1639;42.804;23.342;2023-12-29T10:03:56;74618.91;;;-148.52;100.00
3254;BME280;1639;42.804;23.342;2023-12-29T10:06:24;74610.63;;;-148.52;100.00
3254;BME280;1639;42.804;23.342;2023-12-29T10:08:50;74592.00;;;-148.52;100.00
3254;BME280;1639;42.804;23.342;2023-12-29T10:11:18;74569.25;;;-148.52;100.00
3254;BME280;1639;42.804;23.342;2023-12-29T10:13:46;74583.75;;;-148.52;100.00
3254;BME280;1639;42.804;23.342;2023-12-29T10:16:18;74567.19;;;-148.52;100.00
3254;BME280;1639;42.804;23.342;2023-12-29T10:22:01;74515.47;;;-148.52;100.00
3254;BME280;1639;42.804;23.342;2023-12-29T10:24:29;74490.63;;;-148.52;100.00
3254;BME280;1639;42.804;23.342;2023-12-29T10:26:55;74476.16;;;-148.52;100.00
3254;BME280;1639;42.804;23.342;2023-12-29T10:29:21;74461.66;;;-148.52;100.00
3254;BME280;1639;42.804;23.342;2023-12-29T10:31:46;74451.31;;;-148.52;100.00
3254;BME280;1639;42.804;23.342;2023-12-29T10:34:24;74420.28;;;-148.52;100.00
3254;BME280;1639;42.804;23.342;2023-12-29T10:37:00;74418.22;;;-148.52;100.00
3254;BME280;1639;42.804;23.342;2023-12-29T10:39:34;74405.81;;;-148.52;100.00
3254;BME280;1639;42.804;23.342;2023-12-29T10:42:07;74395.47;;;-148.52;100.00
3254;BME280;1639;42.804;23.342;2023-12-29T10:44:36;74376.84;;;-148.52;100.00
3254;BME280;1639;42.804;23.342;2023-12-29T10:47:09;74341.66;;;-148.52;100.00
3254;BME280;1639;42.804;23.342;2023-12-29T10:49:35;74331.31;;;-148.52;100.00
3254;BME280;1639;42.804;23.342;2023-12-29T10:52:10;74306.50;;;-148.52;100.00
3254;BME280;1639;42.804;23.342;2023-12-29T10:54:36;74296.16;;;-148.52;100.00
3254;BME280;1639;42.804;23.342;2023-12-29T10:57:02;74289.94;;;-148.52;100.00
3254;BME280;1639;42.804;23.342;2023-12-29T10:59:28;74265.13;;;-148.52;100.00
3254;BME280;1639;42.804;23.342;2023-12-29T11:01:53;74244.44;;;-148.52;100.00
3254;BME280;1639;42.804;23.342;2023-12-29T11:04:22;74234.09;;;-148.52;100.00
3254;BME280;1639;42.804;23.342;2023-12-29T11:06:47;74232.00;;;-148.52;100.00
3254;BME280;1639;42.804;23.342;2023-12-29T11:09:13;74205.13;;;-148.52;100.00
3254;BME280;1639;42.804;23.342;2023-12-29T11:11:39;74192.72;;;-148.52;100.00
3254;BME280;1639;42.804;23.342;2023-12-29T11:14:05;74174.09;;;-148.52;100.00
3254;BME280;1639;42.804;23.342;2023-12-29T11:16:31;74155.47;;;-148.52;100.00
3254;BME280;1639;42.804;23.342;2023-12-29T11:19:00;74143.06;;;-148.52;100.00
3254;BME280;1639;42.804;23.342;2023-12-29T11:21:27;74126.50;;;-148.52;100.00
3254;BME280;1639;42.804;23.342;2023-12-29T11:23:55;74112.03;;;-148.52;100.00
3254;BME280;1639;42.804;23.342;2023-12-29T11:26:21;74076.84;;;-148.52;100.00
3254;BME280;1639;42.804;23.342;2023-12-29T11:28:46;73998.25;;;-148.52;100.00
3254;BME280;1639;42.804;23.342;2023-12-29T11:31:16;74010.66;;;-148.52;100.00
3254;BME280;1639;42.804;23.342;2023-12-29T11:33:46;74016.88;;;-148.52;100.00
3254;BME280;1639;42.804;23.342;2023-12-29T11:36:28;74021.00;;;-148.52;100.00
3254;BME280;1639;42.804;23.342;2023-12-29T11:39:03;74008.59;;;-148.52;100.00
3254;BME280;1639;42.804;23.342;2023-12-29T11:44:25;73994.09;;;-148.52;100.00
3254;BME280;1639;42.804;23.342;2023-12-29T11:46:56;73983.75;;;-148.52;100.00
3254;BME280;1639;42.804;23.342;2023-12-29T11:49:22;73973.41;;;-148.52;100.00
3254;BME280;1639;42.804;23.342;2023-12-29T11:51:48;73963.06;;;-148.52;100.00
3254;BME280;1639;42.804;23.342;2023-12-29T11:54:25;73958.94;;;-148.52;100.00
3254;BME280;1639;42.804;23.342;2023-12-29T11:56:52;73940.31;;;-148.52;100.00
3254;BME280;1639;42.804;23.342;2023-12-29T11:59:21;73934.13;;;-148.52;100.00
3254;BME280;1639;42.804;23.342;2023-12-29T12:01:55;73923.78;;;-148.52;100.00
3254;BME280;1639;42.804;23.342;2023-12-29T12:04:40;73911.34;;;-148.52;100.00
3254;BME280;1639;42.804;23.342;2023-12-29T12:07:07;73901.00;;;-148.52;100.00
3254;BME280;1639;42.804;23.342;2023-12-29T12:09:34;73892.75;;;-148.52;100.00
3254;BME280;1639;42.804;23.342;2023-12-29T12:12:01;73882.41;;;-148.52;100.00
3254;BME280;1639;42.804;23.342;2023-12-29T12:14:45;73867.91;;;-148.52;100.00
3254;BME280;1639;42.804;23.342;2023-12-29T12:17:11;73865.84;;;-148.52;100.00
3254;BME280;1639;42.804;23.342;2023-12-29T12:19:36;73855.50;;;-148.52;100.00
3254;BME280;1639;42.804;23.342;2023-12-29T12:22:02;73861.72;;;-148.52;100.00
3254;BME280;1639;42.804;23.342;2023-12-29T12:24:28;73851.38;;;-148.52;100.00
3254;BME280;1639;42.804;23.342;2023-12-29T12:26:54;73841.03;;;-148.52;100.00
3254;BME280;1639;42.804;23.342;2023-12-29T12:29:20;73824.47;;;-148.52;100.00
3254;BME280;1639;42.804;23.342;2023-12-29T12:31:55;73816.19;;;-148.52;100.00
3254;BME280;1639;42.804;23.342;2023-12-29T12:34:21;73814.13;;;-148.52;100.00
3254;BME280;1639;42.804;23.342;2023-12-29T12:36:51;73799.66;;;-148.52;100.00
3254;BME280;1639;42.804;23.342;2023-12-29T12:39:17;73787.25;;;-148.52;100.00
3254;BME280;1639;42.804;23.342;2023-12-29T12:41:42;73783.09;;;-148.52;100.00
3254;BME280;1639;42.804;23.342;2023-12-29T12:44:12;73774.81;;;-148.52;100.00
3254;BME280;1639;42.804;23.342;2023-12-29T12:49:13;73768.63;;;-148.52;100.00